Terminal Aerodrome Forecast
Issued by NWS Wilmington, NC

Home | Current Version | Previous Version | Text Only | Print | Product List | Glossary On
Versions: 1 2 3 4 5 6 7 8 9 10 11 12 13 14 15 16 17 18 19 20 21 22 23 24 25 26 27 28 29 30 31 32 33 34
000
FTUS42 KILM 030520
TAFLBT
TAF
KLBT 030520Z 0306/0406 VRB05KT P6SM -RA SCT030 SCT050 BKN100
      TEMPO 0309/0312 VRB15KT 6SM TSRA SCT025 BKN050CB
     FM031200 20007KT P6SM VCTS SCT020 SCT035CB BKN250
      TEMPO 0312/0316 P6SM -TSRA BKN025 BKN050CB
     FM031600 22010KT P6SM VCTS SCT020 SCT035CB BKN250
     FM032000 25010KT P6SM VCSH SCT030 BKN050=

USA.gov is the U.S. government's official web portal to all federal, state and local government web resources and services.